South River, Missouri
Current Conditions -  °F | °C
As of 2:54 AM on Saturday 22 Nov 2014 (Local Time) from KUIN Reporting Station
Overcast Overcast  
Wind Chill:   Ceiling: 1800
Heat Index:   Visibility: 7mi
Dew Point:   Wind: 13mph
Humidity: 85%   Direction: 190°S
Pressure: 30.08"   Gusts: NA
Location:  39.7865°N, 91.559°W
Report Text: KUIN 220854Z AUTO 19011KT 7SM OVC018 07/04 A3008 RMK AO2 RAB28E38 SLP188 P0000 60000 T00670044 56014
Loading
Personal Weather Stations






























Interactive Weather Map New forecast layout! Learn more

10-Day Weather Forecast

Advertisements
Track Severe Weather on mobile